SBI601 URML-URSS
Flight info
| Callsign | SBI601 |
|---|---|
| Flight time | 2h 0m |
| Altitude | 30000 |
| Route | DUBKI1N DUBKI W86 GASNI G914 NAMEN/K0813F280 G926 GUBOR G487 BINOL BINOL1K |
| Aircraft | A320/M-SDE3FGHIRWY/LB1 |
Departure
| Time | 2026-05-04 12:31 |
|---|---|
| Airport | Makhachkala Uytash International Airport (URML) |
Arrival
| Time | 2026-05-04 14:31 |
|---|---|
| Airport | Sochi International Airport (URSS) |
| Time | Latitude | Longitude | Altitude | Speed | Heading |
|---|---|---|---|---|---|
| 2026-05-04 12:19 | 42.81984 | 47.65583 | 22 ft | 0 kts | 59° |
| 2026-05-04 12:24 | 42.81983 | 47.65581 | 21 ft | 2 kts | 59° |
| 2026-05-04 12:25 | 42.81974 | 47.65562 | 24 ft | 2 kts | 56° |
| 2026-05-04 12:25 | 42.81965 | 47.65544 | 23 ft | 2 kts | 55° |
| 2026-05-04 12:25 | 42.81955 | 47.65526 | 21 ft | 2 kts | 49° |
| 2026-05-04 12:25 | 42.81944 | 47.65509 | 25 ft | 2 kts | 40° |
| 2026-05-04 12:26 | 42.81931 | 47.65497 | 21 ft | 2 kts | 9° |
| 2026-05-04 12:26 | 42.81916 | 47.65498 | 25 ft | 1 kts | 328° |
| 2026-05-04 12:26 | 42.81914 | 47.65500 | 24 ft | 0 kts | 327° |
| 2026-05-04 12:27 | 42.81973 | 47.65451 | 21 ft | 18 kts | 329° |
| 2026-05-04 12:27 | 42.82014 | 47.65328 | 23 ft | 14 kts | 244° |
| 2026-05-04 12:27 | 42.81967 | 47.65218 | 21 ft | 13 kts | 238° |
| 2026-05-04 12:27 | 42.81923 | 47.65122 | 20 ft | 12 kts | 240° |
| 2026-05-04 12:28 | 42.81941 | 47.65026 | 20 ft | 11 kts | 310° |
| 2026-05-04 12:28 | 42.81999 | 47.64974 | 19 ft | 9 kts | 328° |
| 2026-05-04 12:28 | 42.82045 | 47.64935 | 20 ft | 6 kts | 328° |
| 2026-05-04 12:28 | 42.82080 | 47.64906 | 21 ft | 10 kts | 327° |
| 2026-05-04 12:29 | 42.82236 | 47.64773 | 22 ft | 31 kts | 328° |
| 2026-05-04 12:29 | 42.82422 | 47.64616 | 22 ft | 32 kts | 328° |
| 2026-05-04 12:29 | 42.82616 | 47.64470 | 20 ft | 26 kts | 351° |
| 2026-05-04 12:29 | 42.82679 | 47.64439 | 20 ft | 4 kts | 236° |
| 2026-05-04 12:30 | 42.82655 | 47.64422 | 19 ft | 3 kts | 191° |
| 2026-05-04 12:30 | 42.82597 | 47.64466 | 20 ft | 31 kts | 144° |
| 2026-05-04 12:30 | 42.82192 | 47.64813 | 22 ft | 103 kts | 148° |
| 2026-05-04 12:30 | 42.81423 | 47.65464 | 117 ft | 144 kts | 149° |
| 2026-05-04 12:31 | 42.80594 | 47.66141 | 678 ft | 145 kts | 147° |
| 2026-05-04 12:31 | 42.79672 | 47.66925 | 1003 ft | 163 kts | 147° |
| 2026-05-04 12:31 | 42.78679 | 47.67768 | 1388 ft | 178 kts | 146° |
| 2026-05-04 12:31 | 42.77565 | 47.68718 | 1675 ft | 200 kts | 147° |
| 2026-05-04 12:32 | 42.76330 | 47.69773 | 1966 ft | 225 kts | 147° |
| 2026-05-04 12:32 | 42.73567 | 47.72223 | 3320 ft | 247 kts | 136° |
| 2026-05-04 12:32 | 42.72720 | 47.74241 | 3999 ft | 252 kts | 98° |
| 2026-05-04 12:33 | 42.72935 | 47.76575 | 4791 ft | 252 kts | 64° |
| 2026-05-04 12:33 | 42.73668 | 47.78765 | 5548 ft | 258 kts | 69° |
| 2026-05-04 12:33 | 42.74035 | 47.81189 | 6269 ft | 266 kts | 84° |
| 2026-05-04 12:33 | 42.74128 | 47.83720 | 7016 ft | 269 kts | 90° |
| 2026-05-04 12:34 | 42.74118 | 47.86288 | 7774 ft | 273 kts | 92° |
| 2026-05-04 12:34 | 42.74080 | 47.88893 | 8519 ft | 278 kts | 92° |
| 2026-05-04 12:34 | 42.74047 | 47.91547 | 9260 ft | 283 kts | 92° |
| 2026-05-04 12:34 | 42.74033 | 47.94225 | 9763 ft | 290 kts | 92° |
| 2026-05-04 12:35 | 42.74038 | 47.96971 | 9875 ft | 290 kts | 91° |
| 2026-05-04 12:35 | 42.74135 | 47.99711 | 9894 ft | 291 kts | 79° |
| 2026-05-04 12:35 | 42.74925 | 48.02233 | 9897 ft | 292 kts | 53° |
| 2026-05-04 12:35 | 42.76428 | 48.04056 | 10012 ft | 294 kts | 25° |
| 2026-05-04 12:36 | 42.78371 | 48.04844 | 10721 ft | 291 kts | 3° |
| 2026-05-04 12:36 | 42.80394 | 48.05101 | 11468 ft | 293 kts | 2° |
| 2026-05-04 12:36 | 42.82437 | 48.05336 | 12192 ft | 295 kts | 1° |
| 2026-05-04 12:36 | 42.84496 | 48.05566 | 12905 ft | 298 kts | 1° |
| 2026-05-04 12:37 | 42.86573 | 48.05797 | 13617 ft | 301 kts | 1° |
| 2026-05-04 12:37 | 42.88670 | 48.06030 | 14260 ft | 303 kts | 1° |
| 2026-05-04 12:37 | 42.90747 | 48.05888 | 14842 ft | 302 kts | 344° |
| 2026-05-04 12:37 | 42.92708 | 48.04920 | 15443 ft | 300 kts | 327° |
| 2026-05-04 12:38 | 42.94409 | 48.03187 | 15671 ft | 313 kts | 310° |
| 2026-05-04 12:38 | 42.95700 | 48.00716 | 15803 ft | 329 kts | 297° |
| 2026-05-04 12:38 | 42.96887 | 47.97936 | 15931 ft | 348 kts | 297° |
| 2026-05-04 12:38 | 42.98154 | 47.95011 | 16070 ft | 366 kts | 298° |
| 2026-05-04 12:39 | 42.99476 | 47.91985 | 16469 ft | 374 kts | 298° |
| 2026-05-04 12:39 | 43.00817 | 47.88913 | 17015 ft | 379 kts | 298° |
| 2026-05-04 12:39 | 43.02175 | 47.85811 | 17586 ft | 382 kts | 298° |
| 2026-05-04 12:39 | 43.03546 | 47.82677 | 18161 ft | 386 kts | 298° |
| 2026-05-04 12:40 | 43.04921 | 47.79513 | 18661 ft | 389 kts | 297° |
| 2026-05-04 12:40 | 43.06307 | 47.76313 | 19186 ft | 392 kts | 297° |
| 2026-05-04 12:40 | 43.07699 | 47.73094 | 19689 ft | 395 kts | 297° |
| 2026-05-04 12:40 | 43.09074 | 47.69820 | 20205 ft | 396 kts | 293° |
| 2026-05-04 12:41 | 43.10087 | 47.66326 | 20691 ft | 395 kts | 283° |
| 2026-05-04 12:41 | 43.10621 | 47.62640 | 21175 ft | 395 kts | 273° |
| 2026-05-04 12:41 | 43.10656 | 47.58939 | 21628 ft | 395 kts | 263° |
| 2026-05-04 12:41 | 43.10415 | 47.55179 | 22095 ft | 397 kts | 263° |
| 2026-05-04 12:42 | 43.10176 | 47.51402 | 22566 ft | 400 kts | 263° |
| 2026-05-04 12:42 | 43.09939 | 47.47598 | 23027 ft | 402 kts | 263° |
| 2026-05-04 12:42 | 43.09707 | 47.43779 | 23472 ft | 404 kts | 263° |
| 2026-05-04 12:42 | 43.09470 | 47.39931 | 23841 ft | 406 kts | 262° |
| 2026-05-04 12:43 | 43.09227 | 47.36069 | 24211 ft | 408 kts | 262° |
| 2026-05-04 12:43 | 43.08982 | 47.32190 | 24567 ft | 410 kts | 262° |
| 2026-05-04 12:43 | 43.08737 | 47.28286 | 24928 ft | 412 kts | 262° |
| 2026-05-04 12:43 | 43.08495 | 47.24374 | 25279 ft | 413 kts | 262° |
| 2026-05-04 12:44 | 43.08252 | 47.20448 | 25637 ft | 414 kts | 262° |
| 2026-05-04 12:44 | 43.08006 | 47.16518 | 25976 ft | 416 kts | 262° |
| 2026-05-04 12:44 | 43.07755 | 47.12565 | 26308 ft | 418 kts | 262° |
| 2026-05-04 12:44 | 43.07501 | 47.08642 | 26634 ft | 419 kts | 262° |
| 2026-05-04 12:45 | 43.07242 | 47.04667 | 26977 ft | 420 kts | 262° |
| 2026-05-04 12:45 | 43.06979 | 47.00684 | 27295 ft | 421 kts | 262° |
| 2026-05-04 12:45 | 43.06712 | 46.96686 | 27613 ft | 423 kts | 262° |
| 2026-05-04 12:45 | 43.06442 | 46.92679 | 27923 ft | 424 kts | 262° |
| 2026-05-04 12:46 | 43.06234 | 46.88653 | 28221 ft | 427 kts | 266° |
| 2026-05-04 12:46 | 43.06451 | 46.84579 | 28488 ft | 433 kts | 275° |
| 2026-05-04 12:46 | 43.07174 | 46.80548 | 28757 ft | 439 kts | 284° |
| 2026-05-04 12:46 | 43.08294 | 46.76630 | 28989 ft | 443 kts | 287° |
| 2026-05-04 12:47 | 43.09448 | 46.72707 | 29242 ft | 445 kts | 287° |
| 2026-05-04 12:47 | 43.10598 | 46.68772 | 29493 ft | 446 kts | 287° |
| 2026-05-04 12:47 | 43.11744 | 46.64831 | 29816 ft | 445 kts | 287° |
| 2026-05-04 12:48 | 43.13983 | 46.57084 | 29875 ft | 437 kts | 287° |
| 2026-05-04 12:48 | 43.16206 | 46.49358 | 29889 ft | 435 kts | 287° |
| 2026-05-04 12:49 | 43.18430 | 46.41637 | 29893 ft | 436 kts | 287° |
| 2026-05-04 12:49 | 43.20653 | 46.33903 | 29901 ft | 435 kts | 287° |
| 2026-05-04 12:50 | 43.22863 | 46.26180 | 29899 ft | 435 kts | 287° |
| 2026-05-04 12:50 | 43.25049 | 46.18490 | 29899 ft | 435 kts | 286° |
| 2026-05-04 12:51 | 43.27244 | 46.10753 | 29906 ft | 435 kts | 287° |
| 2026-05-04 12:51 | 43.29459 | 46.03007 | 29891 ft | 436 kts | 287° |
| 2026-05-04 12:52 | 43.31675 | 45.95266 | 29890 ft | 436 kts | 287° |
| 2026-05-04 12:52 | 43.33890 | 45.87508 | 29896 ft | 436 kts | 287° |
| 2026-05-04 12:53 | 43.36089 | 45.79742 | 29899 ft | 437 kts | 287° |
| 2026-05-04 12:53 | 43.38281 | 45.71941 | 29894 ft | 438 kts | 287° |
| 2026-05-04 12:54 | 43.39946 | 45.63955 | 29897 ft | 434 kts | 279° |
| 2026-05-04 12:54 | 43.41412 | 45.55898 | 29897 ft | 434 kts | 279° |
| 2026-05-04 12:55 | 43.42878 | 45.47831 | 29908 ft | 435 kts | 279° |
| 2026-05-04 12:55 | 43.44346 | 45.39746 | 29897 ft | 436 kts | 279° |
| 2026-05-04 12:56 | 43.45806 | 45.31640 | 29896 ft | 436 kts | 279° |
| 2026-05-04 12:56 | 43.47249 | 45.23567 | 29897 ft | 437 kts | 279° |
| 2026-05-04 12:57 | 43.48397 | 45.15399 | 29898 ft | 431 kts | 268° |
| 2026-05-04 12:57 | 43.47556 | 45.07375 | 29897 ft | 421 kts | 248° |
| 2026-05-04 12:58 | 43.44735 | 45.00410 | 29899 ft | 416 kts | 228° |
| 2026-05-04 12:58 | 43.40821 | 44.94527 | 29893 ft | 416 kts | 226° |
| 2026-05-04 12:59 | 43.36886 | 44.88675 | 29899 ft | 416 kts | 226° |
| 2026-05-04 12:59 | 43.32983 | 44.82888 | 29904 ft | 416 kts | 226° |
| 2026-05-04 13:00 | 43.29056 | 44.77062 | 29914 ft | 415 kts | 225° |
| 2026-05-04 13:00 | 43.25150 | 44.71218 | 29910 ft | 416 kts | 230° |
| 2026-05-04 13:00 | 43.23588 | 44.67876 | 29908 ft | 419 kts | 242° |
| 2026-05-04 13:01 | 43.22613 | 44.64097 | 29909 ft | 424 kts | 255° |
| 2026-05-04 13:01 | 43.22314 | 44.60057 | 29905 ft | 431 kts | 268° |
| 2026-05-04 13:01 | 43.22714 | 44.55963 | 29919 ft | 438 kts | 281° |
| 2026-05-04 13:02 | 43.24999 | 44.48124 | 29894 ft | 444 kts | 289° |
| 2026-05-04 13:02 | 43.27462 | 44.40323 | 29889 ft | 446 kts | 289° |
| 2026-05-04 13:03 | 43.29909 | 44.32549 | 29891 ft | 447 kts | 289° |
| 2026-05-04 13:03 | 43.32387 | 44.24656 | 29903 ft | 447 kts | 289° |
| 2026-05-04 13:04 | 43.34833 | 44.16848 | 29896 ft | 448 kts | 289° |
| 2026-05-04 13:04 | 43.37291 | 44.08977 | 29893 ft | 449 kts | 289° |
| 2026-05-04 13:05 | 43.39748 | 44.01064 | 29891 ft | 450 kts | 289° |
| 2026-05-04 13:05 | 43.42206 | 43.93138 | 29912 ft | 451 kts | 290° |
| 2026-05-04 13:06 | 43.44705 | 43.85208 | 29904 ft | 452 kts | 290° |
| 2026-05-04 13:06 | 43.47223 | 43.77285 | 29901 ft | 452 kts | 290° |
| 2026-05-04 13:07 | 43.49674 | 43.69367 | 29897 ft | 451 kts | 286° |
| 2026-05-04 13:07 | 43.50814 | 43.62375 | 29902 ft | 444 kts | 271° |
| 2026-05-04 13:08 | 43.50565 | 43.53965 | 29907 ft | 439 kts | 261° |
| 2026-05-04 13:08 | 43.49934 | 43.45592 | 29904 ft | 439 kts | 261° |
| 2026-05-04 13:09 | 43.49309 | 43.37211 | 29894 ft | 439 kts | 261° |
| 2026-05-04 13:09 | 43.48658 | 43.28842 | 29887 ft | 439 kts | 261° |
| 2026-05-04 13:10 | 43.47992 | 43.20521 | 29864 ft | 440 kts | 261° |
| 2026-05-04 13:10 | 43.47316 | 43.12138 | 29860 ft | 440 kts | 261° |
| 2026-05-04 13:11 | 43.46639 | 43.03750 | 29840 ft | 441 kts | 261° |
| 2026-05-04 13:11 | 43.46609 | 42.95288 | 29833 ft | 446 kts | 273° |
| 2026-05-04 13:12 | 43.47217 | 42.86772 | 29837 ft | 447 kts | 272° |
| 2026-05-04 13:12 | 43.47799 | 42.78237 | 29802 ft | 448 kts | 272° |
| 2026-05-04 13:13 | 43.48372 | 42.69686 | 29803 ft | 449 kts | 272° |
| 2026-05-04 13:13 | 43.48858 | 42.61113 | 29806 ft | 449 kts | 271° |
| 2026-05-04 13:14 | 43.49264 | 42.52528 | 29800 ft | 450 kts | 271° |
| 2026-05-04 13:14 | 43.49664 | 42.43922 | 29789 ft | 451 kts | 271° |
| 2026-05-04 13:15 | 43.50086 | 42.35296 | 29786 ft | 451 kts | 271° |
| 2026-05-04 13:15 | 43.50507 | 42.26732 | 29784 ft | 451 kts | 271° |
| 2026-05-04 13:16 | 43.50920 | 42.18097 | 29796 ft | 452 kts | 270° |
| 2026-05-04 13:16 | 43.51322 | 42.09437 | 29784 ft | 454 kts | 270° |
| 2026-05-04 13:17 | 43.51721 | 42.00736 | 29779 ft | 456 kts | 270° |
| 2026-05-04 13:17 | 43.52117 | 41.92019 | 29790 ft | 450 kts | 270° |
| 2026-05-04 13:17 | 43.52308 | 41.87804 | 29810 ft | 432 kts | 270° |
| 2026-05-04 13:18 | 43.52491 | 41.83755 | 29808 ft | 415 kts | 270° |
| 2026-05-04 13:18 | 43.52967 | 41.79898 | 29806 ft | 403 kts | 285° |
| 2026-05-04 13:18 | 43.54152 | 41.76468 | 29808 ft | 391 kts | 302° |
| 2026-05-04 13:18 | 43.55919 | 41.73678 | 29812 ft | 384 kts | 319° |
| 2026-05-04 13:19 | 43.58127 | 41.71643 | 29812 ft | 382 kts | 335° |
| 2026-05-04 13:19 | 43.60638 | 41.70487 | 29819 ft | 380 kts | 352° |
| 2026-05-04 13:19 | 43.63231 | 41.70283 | 29825 ft | 377 kts | 8° |
| 2026-05-04 13:19 | 43.65780 | 41.71007 | 29826 ft | 373 kts | 24° |
| 2026-05-04 13:20 | 43.68078 | 41.72585 | 29824 ft | 367 kts | 39° |
| 2026-05-04 13:20 | 43.69986 | 41.74882 | 29830 ft | 360 kts | 54° |
| 2026-05-04 13:20 | 43.71399 | 41.77709 | 29815 ft | 354 kts | 68° |
| 2026-05-04 13:20 | 43.72251 | 41.80869 | 29819 ft | 349 kts | 82° |
| 2026-05-04 13:21 | 43.72542 | 41.84174 | 29823 ft | 344 kts | 92° |
| 2026-05-04 13:21 | 43.72406 | 41.90731 | 29818 ft | 342 kts | 98° |
| 2026-05-04 13:22 | 43.71989 | 41.97285 | 29803 ft | 342 kts | 99° |
| 2026-05-04 13:22 | 43.71398 | 42.03792 | 29780 ft | 338 kts | 110° |
| 2026-05-04 13:22 | 43.70512 | 42.06773 | 29785 ft | 334 kts | 123° |
| 2026-05-04 13:23 | 43.69173 | 42.09368 | 29786 ft | 330 kts | 135° |
| 2026-05-04 13:23 | 43.67464 | 42.11453 | 29785 ft | 328 kts | 147° |
| 2026-05-04 13:23 | 43.65464 | 42.12948 | 29785 ft | 327 kts | 159° |
| 2026-05-04 13:23 | 43.63275 | 42.13782 | 29785 ft | 327 kts | 172° |
| 2026-05-04 13:24 | 43.60997 | 42.13917 | 29783 ft | 329 kts | 184° |
| 2026-05-04 13:24 | 43.58743 | 42.13328 | 29772 ft | 331 kts | 196° |
| 2026-05-04 13:24 | 43.56635 | 42.12031 | 29781 ft | 334 kts | 209° |
| 2026-05-04 13:25 | 43.53294 | 42.07568 | 29793 ft | 344 kts | 234° |
| 2026-05-04 13:25 | 43.52242 | 42.04574 | 29781 ft | 351 kts | 248° |
| 2026-05-04 13:25 | 43.51734 | 42.01262 | 29781 ft | 357 kts | 262° |
| 2026-05-04 13:25 | 43.51794 | 41.97814 | 29783 ft | 362 kts | 270° |
| 2026-05-04 13:26 | 43.52133 | 41.90879 | 29787 ft | 362 kts | 270° |
| 2026-05-04 13:26 | 43.52462 | 41.83926 | 29787 ft | 364 kts | 270° |
| 2026-05-04 13:27 | 43.52896 | 41.80480 | 29772 ft | 368 kts | 287° |
| 2026-05-04 13:27 | 43.54109 | 41.77409 | 29784 ft | 373 kts | 308° |
| 2026-05-04 13:27 | 43.56040 | 41.75012 | 29785 ft | 376 kts | 329° |
| 2026-05-04 13:27 | 43.58450 | 41.73658 | 29792 ft | 374 kts | 351° |
| 2026-05-04 13:28 | 43.61028 | 41.73513 | 29816 ft | 373 kts | 12° |
| 2026-05-04 13:28 | 43.63477 | 41.74548 | 29823 ft | 367 kts | 32° |
| 2026-05-04 13:28 | 43.65507 | 41.76612 | 29820 ft | 359 kts | 52° |
| 2026-05-04 13:28 | 43.66911 | 41.79417 | 29831 ft | 351 kts | 71° |
| 2026-05-04 13:29 | 43.67572 | 41.82605 | 29831 ft | 343 kts | 89° |
| 2026-05-04 13:29 | 43.67638 | 41.85875 | 29816 ft | 341 kts | 95° |
| 2026-05-04 13:29 | 43.67353 | 41.92417 | 29812 ft | 341 kts | 99° |
| 2026-05-04 13:30 | 43.66935 | 41.98943 | 29802 ft | 341 kts | 102° |
| 2026-05-04 13:30 | 43.66310 | 42.02020 | 29792 ft | 334 kts | 118° |
| 2026-05-04 13:30 | 43.65063 | 42.04690 | 29790 ft | 329 kts | 134° |
| 2026-05-04 13:31 | 43.63329 | 42.06706 | 29785 ft | 326 kts | 151° |
| 2026-05-04 13:31 | 43.61253 | 42.07915 | 29781 ft | 325 kts | 167° |
| 2026-05-04 13:31 | 43.59007 | 42.08226 | 29774 ft | 326 kts | 182° |
| 2026-05-04 13:31 | 43.56776 | 42.07598 | 29802 ft | 330 kts | 199° |
| 2026-05-04 13:32 | 43.54751 | 42.06057 | 29797 ft | 336 kts | 216° |
| 2026-05-04 13:32 | 43.53140 | 42.03702 | 29788 ft | 343 kts | 233° |
| 2026-05-04 13:32 | 43.52111 | 42.00706 | 29779 ft | 350 kts | 251° |
| 2026-05-04 13:32 | 43.51815 | 41.97348 | 29777 ft | 358 kts | 269° |
| 2026-05-04 13:33 | 43.52137 | 41.90470 | 29789 ft | 361 kts | 270° |
| 2026-05-04 13:33 | 43.52480 | 41.83540 | 29787 ft | 363 kts | 271° |
| 2026-05-04 13:34 | 43.52990 | 41.80118 | 29770 ft | 369 kts | 290° |
| 2026-05-04 13:34 | 43.54307 | 41.77079 | 29780 ft | 373 kts | 311° |
| 2026-05-04 13:34 | 43.56287 | 41.74829 | 29783 ft | 376 kts | 332° |
| 2026-05-04 13:34 | 43.58729 | 41.73611 | 29794 ft | 373 kts | 354° |
| 2026-05-04 13:35 | 43.61304 | 41.73611 | 29811 ft | 370 kts | 14° |
| 2026-05-04 13:35 | 43.65663 | 41.76924 | 29824 ft | 357 kts | 54° |
| 2026-05-04 13:35 | 43.66977 | 41.79786 | 29833 ft | 349 kts | 73° |
| 2026-05-04 13:36 | 43.67543 | 41.82984 | 29833 ft | 340 kts | 91° |
| 2026-05-04 13:36 | 43.67466 | 41.89505 | 29821 ft | 340 kts | 98° |
| 2026-05-04 13:37 | 43.67076 | 41.96018 | 29813 ft | 341 kts | 98° |
| 2026-05-04 13:37 | 43.66147 | 42.02319 | 29804 ft | 334 kts | 121° |
| 2026-05-04 13:37 | 43.65310 | 42.04138 | 29801 ft | 330 kts | 132° |
| 2026-05-04 13:38 | 43.63037 | 42.06826 | 29796 ft | 326 kts | 153° |
| 2026-05-04 13:38 | 43.60928 | 42.07928 | 29791 ft | 325 kts | 169° |
| 2026-05-04 13:38 | 43.58675 | 42.08117 | 29779 ft | 326 kts | 185° |
| 2026-05-04 13:38 | 43.56465 | 42.07362 | 29796 ft | 331 kts | 201° |
| 2026-05-04 13:39 | 43.54486 | 42.05705 | 29798 ft | 336 kts | 218° |
| 2026-05-04 13:39 | 43.52943 | 42.03260 | 29785 ft | 343 kts | 235° |
| 2026-05-04 13:39 | 43.52018 | 42.00207 | 29776 ft | 350 kts | 254° |
| 2026-05-04 13:39 | 43.51833 | 41.96837 | 29775 ft | 357 kts | 270° |
| 2026-05-04 13:40 | 43.52006 | 41.93386 | 29813 ft | 363 kts | 270° |
| 2026-05-04 13:40 | 43.52343 | 41.86472 | 29816 ft | 365 kts | 270° |
| 2026-05-04 13:41 | 43.53151 | 41.79579 | 29807 ft | 371 kts | 293° |
| 2026-05-04 13:41 | 43.54593 | 41.76617 | 29816 ft | 377 kts | 314° |
| 2026-05-04 13:41 | 43.56702 | 41.74477 | 29827 ft | 378 kts | 335° |
| 2026-05-04 13:42 | 43.61790 | 41.73643 | 29811 ft | 370 kts | 18° |
| 2026-05-04 13:42 | 43.64131 | 41.74974 | 29806 ft | 361 kts | 38° |
| 2026-05-04 13:42 | 43.65983 | 41.77228 | 29800 ft | 351 kts | 57° |
| 2026-05-04 13:42 | 43.67188 | 41.80101 | 29803 ft | 342 kts | 75° |
| 2026-05-04 13:43 | 43.67678 | 41.83262 | 29805 ft | 334 kts | 92° |
| 2026-05-04 13:43 | 43.67699 | 41.86437 | 29801 ft | 337 kts | 96° |
| 2026-05-04 13:43 | 43.67393 | 41.92921 | 29824 ft | 339 kts | 99° |
| 2026-05-04 13:44 | 43.66954 | 41.99432 | 29819 ft | 340 kts | 104° |
| 2026-05-04 13:44 | 43.66225 | 42.02493 | 29813 ft | 334 kts | 121° |
| 2026-05-04 13:44 | 43.64895 | 42.05078 | 29818 ft | 329 kts | 137° |
| 2026-05-04 13:45 | 43.63096 | 42.06995 | 29818 ft | 327 kts | 153° |
| 2026-05-04 13:45 | 43.60969 | 42.08097 | 29814 ft | 327 kts | 169° |
| 2026-05-04 13:45 | 43.58701 | 42.08275 | 29802 ft | 328 kts | 185° |
| 2026-05-04 13:45 | 43.56480 | 42.07510 | 29824 ft | 332 kts | 201° |
| 2026-05-04 13:46 | 43.54501 | 42.05843 | 29814 ft | 337 kts | 218° |
| 2026-05-04 13:46 | 43.52973 | 42.03419 | 29799 ft | 344 kts | 235° |
| 2026-05-04 13:46 | 43.52033 | 42.00364 | 29789 ft | 351 kts | 253° |
| 2026-05-04 13:46 | 43.51824 | 41.96944 | 29781 ft | 358 kts | 270° |
| 2026-05-04 13:47 | 43.52174 | 41.90127 | 29787 ft | 360 kts | 270° |
| 2026-05-04 13:47 | 43.52508 | 41.83228 | 29783 ft | 362 kts | 271° |
| 2026-05-04 13:48 | 43.53081 | 41.79831 | 29774 ft | 368 kts | 291° |
| 2026-05-04 13:48 | 43.54467 | 41.76854 | 29787 ft | 372 kts | 313° |
| 2026-05-04 13:48 | 43.56519 | 41.74701 | 29786 ft | 373 kts | 335° |
| 2026-05-04 13:48 | 43.58980 | 41.73641 | 29808 ft | 372 kts | 356° |
| 2026-05-04 13:49 | 43.61558 | 41.73779 | 29819 ft | 370 kts | 17° |
| 2026-05-04 13:49 | 43.63910 | 41.75087 | 29828 ft | 363 kts | 38° |
| 2026-05-04 13:49 | 43.65750 | 41.77324 | 29828 ft | 354 kts | 57° |
| 2026-05-04 13:49 | 43.66957 | 41.80268 | 29835 ft | 345 kts | 76° |
| 2026-05-04 13:50 | 43.67414 | 41.83473 | 29841 ft | 338 kts | 92° |
| 2026-05-04 13:50 | 43.67425 | 41.86673 | 29802 ft | 337 kts | 96° |
| 2026-05-04 13:50 | 43.67117 | 41.93148 | 29825 ft | 338 kts | 99° |
| 2026-05-04 13:51 | 43.66657 | 41.99630 | 29804 ft | 337 kts | 106° |
| 2026-05-04 13:51 | 43.66196 | 42.01656 | 29796 ft | 333 kts | 117° |
| 2026-05-04 13:51 | 43.64462 | 42.05114 | 29794 ft | 326 kts | 139° |
| 2026-05-04 13:52 | 43.61230 | 42.07656 | 29787 ft | 324 kts | 166° |
| 2026-05-04 13:52 | 43.58985 | 42.08006 | 29784 ft | 325 kts | 182° |
| 2026-05-04 13:52 | 43.56759 | 42.07408 | 29813 ft | 329 kts | 198° |
| 2026-05-04 13:53 | 43.54758 | 42.05911 | 29800 ft | 335 kts | 215° |
| 2026-05-04 13:53 | 43.53140 | 42.03579 | 29792 ft | 342 kts | 233° |
| 2026-05-04 13:53 | 43.52112 | 42.00601 | 29783 ft | 349 kts | 251° |
| 2026-05-04 13:54 | 43.51838 | 41.93838 | 29787 ft | 358 kts | 269° |
| 2026-05-04 13:54 | 43.51993 | 41.90405 | 29787 ft | 360 kts | 270° |
| 2026-05-04 13:55 | 43.52981 | 41.80111 | 29782 ft | 368 kts | 291° |
| 2026-05-04 13:55 | 43.56312 | 41.74850 | 29788 ft | 373 kts | 332° |
| 2026-05-04 13:55 | 43.58740 | 41.73662 | 29802 ft | 371 kts | 354° |
| 2026-05-04 13:56 | 43.61305 | 41.73674 | 29820 ft | 369 kts | 15° |
| 2026-05-04 13:56 | 43.63659 | 41.74846 | 29827 ft | 362 kts | 35° |
| 2026-05-04 13:56 | 43.66891 | 41.79871 | 29839 ft | 345 kts | 73° |
| 2026-05-04 13:57 | 43.67445 | 41.83048 | 29841 ft | 337 kts | 91° |
| 2026-05-04 13:58 | 43.66992 | 41.95921 | 29811 ft | 338 kts | 98° |
| 2026-05-04 13:58 | 43.66067 | 42.02200 | 29800 ft | 331 kts | 120° |
| 2026-05-04 13:58 | 43.64770 | 42.04787 | 29796 ft | 326 kts | 136° |
| 2026-05-04 13:59 | 43.63005 | 42.06707 | 29790 ft | 323 kts | 152° |
| 2026-05-04 13:59 | 43.60908 | 42.07822 | 29789 ft | 324 kts | 168° |
| 2026-05-04 13:59 | 43.56452 | 42.07287 | 29807 ft | 330 kts | 201° |
| 2026-05-04 14:00 | 43.54483 | 42.05637 | 29803 ft | 336 kts | 218° |
| 2026-05-04 14:00 | 43.52021 | 42.00120 | 29785 ft | 350 kts | 254° |
| 2026-05-04 14:00 | 43.51836 | 41.96798 | 29780 ft | 356 kts | 270° |
| 2026-05-04 14:01 | 43.52173 | 41.89916 | 29821 ft | 363 kts | 270° |
| 2026-05-04 14:01 | 43.52685 | 41.82901 | 29809 ft | 382 kts | 284° |
| 2026-05-04 14:02 | 43.53691 | 41.79429 | 29818 ft | 398 kts | 291° |
| 2026-05-04 14:02 | 43.54833 | 41.75886 | 29824 ft | 412 kts | 291° |
| 2026-05-04 14:02 | 43.56023 | 41.72224 | 29825 ft | 425 kts | 291° |
| 2026-05-04 14:02 | 43.57247 | 41.68461 | 29824 ft | 436 kts | 292° |
| 2026-05-04 14:03 | 43.58502 | 41.64595 | 29823 ft | 447 kts | 292° |
| 2026-05-04 14:03 | 43.61092 | 41.56588 | 29822 ft | 465 kts | 292° |
| 2026-05-04 14:04 | 43.65057 | 41.44261 | 29823 ft | 469 kts | 292° |
| 2026-05-04 14:04 | 43.67683 | 41.36051 | 29833 ft | 470 kts | 291° |
| 2026-05-04 14:05 | 43.71631 | 41.23614 | 29841 ft | 471 kts | 291° |
| 2026-05-04 14:06 | 43.74257 | 41.15313 | 29871 ft | 471 kts | 292° |
| 2026-05-04 14:06 | 43.76885 | 41.06992 | 29847 ft | 472 kts | 292° |
| 2026-05-04 14:07 | 43.79510 | 40.98659 | 29767 ft | 475 kts | 292° |
| 2026-05-04 14:07 | 43.80829 | 40.94460 | 29478 ft | 476 kts | 292° |
| 2026-05-04 14:07 | 43.82147 | 40.90247 | 29202 ft | 477 kts | 292° |
| 2026-05-04 14:07 | 43.83461 | 40.86032 | 28923 ft | 477 kts | 292° |
| 2026-05-04 14:08 | 43.84770 | 40.81808 | 28651 ft | 477 kts | 291° |
| 2026-05-04 14:08 | 43.85776 | 40.77441 | 28384 ft | 475 kts | 281° |
| 2026-05-04 14:08 | 43.86250 | 40.72987 | 28115 ft | 472 kts | 271° |
| 2026-05-04 14:08 | 43.86196 | 40.68461 | 27847 ft | 468 kts | 261° |
| 2026-05-04 14:09 | 43.84593 | 40.59868 | 27270 ft | 456 kts | 244° |
| 2026-05-04 14:09 | 43.83330 | 40.55864 | 26618 ft | 450 kts | 243° |
| 2026-05-04 14:10 | 43.80816 | 40.48013 | 25364 ft | 441 kts | 243° |
| 2026-05-04 14:10 | 43.79572 | 40.44145 | 24756 ft | 439 kts | 243° |
| 2026-05-04 14:10 | 43.78332 | 40.40294 | 24124 ft | 436 kts | 243° |
| 2026-05-04 14:10 | 43.77104 | 40.36477 | 23524 ft | 433 kts | 243° |
| 2026-05-04 14:11 | 43.75884 | 40.32682 | 22857 ft | 430 kts | 243° |
| 2026-05-04 14:11 | 43.73473 | 40.25197 | 21761 ft | 422 kts | 243° |
| 2026-05-04 14:11 | 43.72282 | 40.21510 | 21257 ft | 417 kts | 243° |
| 2026-05-04 14:12 | 43.71096 | 40.17863 | 20754 ft | 413 kts | 242° |
| 2026-05-04 14:12 | 43.69662 | 40.14465 | 20283 ft | 405 kts | 230° |
| 2026-05-04 14:12 | 43.65665 | 40.09176 | 19817 ft | 396 kts | 208° |
| 2026-05-04 14:13 | 43.63259 | 40.07376 | 19730 ft | 391 kts | 200° |
| 2026-05-04 14:13 | 43.60804 | 40.05844 | 19515 ft | 391 kts | 200° |
| 2026-05-04 14:13 | 43.58333 | 40.04293 | 19244 ft | 389 kts | 200° |
| 2026-05-04 14:13 | 43.55875 | 40.02749 | 18998 ft | 387 kts | 200° |
| 2026-05-04 14:14 | 43.53427 | 40.01211 | 18754 ft | 386 kts | 200° |
| 2026-05-04 14:14 | 43.48559 | 39.98158 | 18269 ft | 383 kts | 200° |
| 2026-05-04 14:14 | 43.46138 | 39.96645 | 17838 ft | 380 kts | 200° |
| 2026-05-04 14:15 | 43.41213 | 39.94286 | 17020 ft | 372 kts | 194° |
| 2026-05-04 14:15 | 43.36327 | 39.92066 | 16215 ft | 367 kts | 195° |
| 2026-05-04 14:16 | 43.31499 | 39.89865 | 15432 ft | 362 kts | 195° |
| 2026-05-04 14:16 | 43.29118 | 39.88778 | 15030 ft | 358 kts | 195° |
| 2026-05-04 14:17 | 43.24467 | 39.86661 | 14537 ft | 341 kts | 195° |
| 2026-05-04 14:17 | 43.22260 | 39.85657 | 14423 ft | 328 kts | 195° |
| 2026-05-04 14:17 | 43.18076 | 39.83756 | 14172 ft | 306 kts | 195° |
| 2026-05-04 14:18 | 43.16074 | 39.82850 | 13938 ft | 300 kts | 195° |
| 2026-05-04 14:18 | 43.12175 | 39.81099 | 12910 ft | 290 kts | 196° |
| 2026-05-04 14:19 | 43.08444 | 39.79424 | 11689 ft | 278 kts | 197° |
| 2026-05-04 14:19 | 43.06714 | 39.78381 | 11289 ft | 277 kts | 213° |
| 2026-05-04 14:19 | 43.05408 | 39.76404 | 10974 ft | 282 kts | 239° |
| 2026-05-04 14:19 | 43.04910 | 39.73825 | 10644 ft | 291 kts | 266° |
| 2026-05-04 14:20 | 43.05307 | 39.71064 | 10305 ft | 295 kts | 284° |
| 2026-05-04 14:20 | 43.05913 | 39.68430 | 9963 ft | 294 kts | 284° |
| 2026-05-04 14:20 | 43.06531 | 39.65777 | 9614 ft | 292 kts | 284° |
| 2026-05-04 14:21 | 43.07752 | 39.60524 | 8930 ft | 287 kts | 285° |
| 2026-05-04 14:21 | 43.08353 | 39.57928 | 8593 ft | 284 kts | 285° |
| 2026-05-04 14:21 | 43.08944 | 39.55361 | 8254 ft | 282 kts | 284° |
| 2026-05-04 14:21 | 43.09531 | 39.52809 | 7932 ft | 280 kts | 285° |
| 2026-05-04 14:22 | 43.10260 | 39.50352 | 7624 ft | 279 kts | 300° |
| 2026-05-04 14:22 | 43.11556 | 39.48385 | 7309 ft | 280 kts | 321° |
| 2026-05-04 14:22 | 43.13291 | 39.47159 | 6964 ft | 282 kts | 341° |
| 2026-05-04 14:22 | 43.15231 | 39.46807 | 6596 ft | 283 kts | 1° |
| 2026-05-04 14:23 | 43.18746 | 39.48996 | 5861 ft | 284 kts | 45° |
| 2026-05-04 14:23 | 43.19842 | 39.51219 | 5588 ft | 281 kts | 66° |
| 2026-05-04 14:23 | 43.20472 | 39.53770 | 5304 ft | 283 kts | 72° |
| 2026-05-04 14:24 | 43.21067 | 39.56349 | 5015 ft | 283 kts | 72° |
| 2026-05-04 14:24 | 43.21658 | 39.58911 | 4727 ft | 281 kts | 72° |
| 2026-05-04 14:24 | 43.22248 | 39.61453 | 4431 ft | 280 kts | 71° |
| 2026-05-04 14:24 | 43.22831 | 39.63961 | 4157 ft | 280 kts | 71° |
| 2026-05-04 14:25 | 43.23426 | 39.66522 | 3877 ft | 277 kts | 71° |
| 2026-05-04 14:25 | 43.24575 | 39.71499 | 3335 ft | 274 kts | 70° |
| 2026-05-04 14:25 | 43.25151 | 39.73998 | 3064 ft | 274 kts | 71° |
| 2026-05-04 14:26 | 43.25721 | 39.76476 | 2792 ft | 270 kts | 70° |
| 2026-05-04 14:26 | 43.26274 | 39.78874 | 2647 ft | 257 kts | 70° |
| 2026-05-04 14:26 | 43.26942 | 39.81061 | 2552 ft | 241 kts | 54° |
| 2026-05-04 14:26 | 43.27993 | 39.82734 | 2453 ft | 225 kts | 37° |
| 2026-05-04 14:27 | 43.29267 | 39.83850 | 2354 ft | 211 kts | 25° |
| 2026-05-04 14:27 | 43.30521 | 39.84785 | 2262 ft | 200 kts | 25° |
| 2026-05-04 14:27 | 43.31711 | 39.85675 | 2206 ft | 184 kts | 25° |
| 2026-05-04 14:27 | 43.32796 | 39.86487 | 2115 ft | 171 kts | 24° |
| 2026-05-04 14:28 | 43.33786 | 39.87229 | 2040 ft | 153 kts | 25° |
| 2026-05-04 14:28 | 43.34684 | 39.87899 | 1913 ft | 144 kts | 28° |
| 2026-05-04 14:28 | 43.35537 | 39.88537 | 1756 ft | 140 kts | 28° |
| 2026-05-04 14:28 | 43.36393 | 39.89177 | 1584 ft | 136 kts | 28° |
| 2026-05-04 14:29 | 43.38041 | 39.90418 | 1227 ft | 134 kts | 29° |
| 2026-05-04 14:29 | 43.39387 | 39.91429 | 877 ft | 131 kts | 28° |
| 2026-05-04 14:30 | 43.40433 | 39.92218 | 724 ft | 128 kts | 28° |
| 2026-05-04 14:30 | 43.41224 | 39.92800 | 573 ft | 129 kts | 27° |
| 2026-05-04 14:30 | 43.42531 | 39.93775 | 316 ft | 129 kts | 29° |
| 2026-05-04 14:31 | 43.43316 | 39.94373 | 125 ft | 129 kts | 28° |
| 2026-05-04 14:31 | 43.44490 | 39.95251 | 81 ft | 26 kts | 28° |
| 2026-05-04 14:32 | 43.44787 | 39.95259 | 80 ft | 24 kts | 337° |
| 2026-05-04 14:32 | 43.44921 | 39.95163 | 84 ft | 17 kts | 312° |
| 2026-05-04 14:32 | 43.44926 | 39.95155 | 85 ft | 0 kts | 311° |
| 2026-05-04 14:32 | 43.44933 | 39.95142 | 82 ft | 9 kts | 308° |
| 2026-05-04 14:33 | 43.44942 | 39.94990 | 81 ft | 18 kts | 252° |
| 2026-05-04 14:33 | 43.44892 | 39.94828 | 75 ft | 19 kts | 244° |
| 2026-05-04 14:33 | 43.44835 | 39.94664 | 65 ft | 19 kts | 245° |
| 2026-05-04 14:33 | 43.44782 | 39.94507 | 73 ft | 17 kts | 245° |
| 2026-05-04 14:34 | 43.44798 | 39.94382 | 74 ft | 12 kts | 330° |